createdAt,value
2019-01-10T00:00:00.747Z,13.16
2019-01-10T00:01:00.737Z,12.99
2019-01-10T00:02:00.727Z,13.13
2019-01-10T00:03:00.992Z,13.08
2019-01-10T00:04:00.703Z,13.03
2019-01-10T00:05:00.696Z,13.11
2019-01-10T00:06:00.682Z,13.09
2019-01-10T00:07:00.672Z,13.13
2019-01-10T00:08:00.663Z,13.06
2019-01-10T00:09:00.753Z,13.08
2019-01-10T00:10:00.641Z,13.08
2019-01-10T00:11:00.630Z,13.12
2019-01-10T00:12:00.621Z,13.06
2019-01-10T00:13:00.612Z,13.09
2019-01-10T00:14:00.594Z,13.03
2019-01-10T00:15:00.680Z,13.20
2019-01-10T00:16:00.572Z,13.08
2019-01-10T00:17:00.563Z,12.90
2019-01-10T00:18:00.564Z,12.98
2019-01-10T00:19:00.546Z,13.16
2019-01-10T00:20:00.537Z,13.02
2019-01-10T00:21:00.696Z,13.05
2019-01-10T00:22:00.509Z,13.06
2019-01-10T00:23:00.502Z,13.08
2019-01-10T00:24:00.488Z,13.08
2019-01-10T00:25:00.483Z,13.06
2019-01-10T00:26:00.465Z,12.98
2019-01-10T00:27:00.562Z,13.09
2019-01-10T00:28:00.447Z,12.94
2019-01-10T00:29:00.432Z,12.99
2019-01-10T00:30:00.427Z,13.11
2019-01-10T00:31:01.343Z,13.05
2019-01-10T00:32:00.404Z,13.05
2019-01-10T00:33:00.491Z,12.98
2019-01-10T00:34:00.384Z,13.03
2019-01-10T00:35:00.373Z,13.08
2019-01-10T00:36:00.361Z,13.01
2019-01-10T00:37:00.347Z,13.05
2019-01-10T00:38:00.339Z,13.08
2019-01-10T00:39:00.527Z,13.09
2019-01-10T00:40:00.323Z,13.06
2019-01-10T00:41:00.307Z,13.06
2019-01-10T00:42:00.293Z,13.02
2019-01-10T00:43:00.288Z,13.01
2019-01-10T00:44:00.275Z,13.08
2019-01-10T00:45:00.366Z,13.08
2019-01-10T00:46:00.251Z,13.09
2019-01-10T00:47:00.262Z,12.94
2019-01-10T00:48:00.228Z,13.12
2019-01-10T00:49:00.223Z,13.08
2019-01-10T00:50:00.209Z,12.95
2019-01-10T00:51:00.309Z,13.08
2019-01-10T00:52:00.191Z,13.08
2019-01-10T00:53:00.177Z,12.91
2019-01-10T00:54:00.167Z,13.02
2019-01-10T00:55:00.284Z,13.03
2019-01-10T00:56:00.143Z,13.17
2019-01-10T00:57:00.344Z,13.05
2019-01-10T00:58:00.126Z,13.06
2019-01-10T00:59:00.111Z,12.99
2019-01-10T01:00:00.169Z,13.03
2019-01-10T01:01:00.093Z,13.05
2019-01-10T01:02:00.083Z,13.05
2019-01-10T01:03:00.171Z,13.19
2019-01-10T01:04:00.058Z,13.08
2019-01-10T01:05:00.049Z,13.01
2019-01-10T01:06:00.045Z,13.05
2019-01-10T01:07:00.031Z,13.03
2019-01-10T01:08:00.016Z,13.06
2019-01-10T01:09:00.114Z,13.03
2019-01-10T01:10:00.000Z,13.16
2019-01-10T01:10:59.985Z,13.05
2019-01-10T01:11:59.973Z,13.01
2019-01-10T01:12:59.961Z,13.05
2019-01-10T01:13:59.951Z,12.95
2019-01-10T01:15:00.108Z,13.06
2019-01-10T01:15:59.931Z,13.06
2019-01-10T01:16:59.919Z,13.05
2019-01-10T01:17:59.985Z,13.12
2019-01-10T01:18:59.902Z,13.06
2019-01-10T01:19:59.892Z,13.08
2019-01-10T01:21:00.178Z,13.06
2019-01-10T01:21:59.868Z,13.05
2019-01-10T01:22:59.857Z,13.08
2019-01-10T01:23:59.843Z,13.06
2019-01-10T01:24:59.833Z,13.06
2019-01-10T01:25:59.828Z,13.12
2019-01-10T01:26:59.955Z,13.21
2019-01-10T01:27:59.804Z,13.08
2019-01-10T01:28:59.787Z,13.09
2019-01-10T01:29:59.775Z,13.12
2019-01-10T01:30:59.766Z,13.09
2019-01-10T01:31:59.756Z,13.12
2019-01-10T01:32:59.917Z,13.06
2019-01-10T01:33:59.747Z,13.09
2019-01-10T01:34:59.726Z,12.99
2019-01-10T01:35:59.715Z,13.21
2019-01-10T01:36:59.706Z,13.16
2019-01-10T01:37:59.696Z,13.02
2019-01-10T01:38:59.865Z,13.16
2019-01-10T01:39:59.667Z,13.06
2019-01-10T01:40:59.661Z,13.09
2019-01-10T01:41:59.744Z,13.20
2019-01-10T01:43:07.376Z,13.16
2019-01-10T01:44:00.732Z,13.17
2019-01-10T01:44:59.621Z,13.19
2019-01-10T01:45:59.608Z,13.28
2019-01-10T01:46:59.596Z,13.19
2019-01-10T01:47:59.585Z,13.21
2019-01-10T01:48:59.574Z,13.24
2019-01-10T01:49:59.664Z,13.19
2019-01-10T01:50:59.550Z,13.24
2019-01-10T01:51:59.543Z,13.27
2019-01-10T01:52:59.533Z,13.26
2019-01-10T01:53:59.522Z,13.24
2019-01-10T01:54:59.511Z,13.28
2019-01-10T01:55:59.722Z,13.26
2019-01-10T01:56:59.489Z,13.27
2019-01-10T01:57:59.476Z,13.24
2019-01-10T01:58:59.899Z,13.23
2019-01-10T01:59:59.455Z,13.19
2019-01-10T02:00:59.445Z,13.23
2019-01-10T02:01:59.543Z,13.16
2019-01-10T02:02:59.425Z,13.23
2019-01-10T02:03:59.412Z,13.17
2019-01-10T02:04:59.401Z,13.19
2019-01-10T02:05:59.387Z,13.13
2019-01-10T02:06:59.381Z,13.26
2019-01-10T02:07:59.640Z,13.19
2019-01-10T02:08:59.356Z,13.12
2019-01-10T02:09:59.348Z,13.19
2019-01-10T02:10:59.336Z,13.13
2019-01-10T02:11:59.326Z,13.19
2019-01-10T02:12:59.317Z,13.16
2019-01-10T02:13:59.398Z,13.05
2019-01-10T02:14:59.295Z,13.12
2019-01-10T02:15:59.283Z,13.06
2019-01-10T02:16:59.367Z,13.08
2019-01-10T02:17:59.260Z,13.13
2019-01-10T02:18:59.252Z,12.94
2019-01-10T02:19:59.336Z,13.02
2019-01-10T02:20:59.229Z,13.03
2019-01-10T02:21:59.219Z,13.06
2019-01-10T02:22:59.208Z,13.02
2019-01-10T02:23:59.197Z,13.01
2019-01-10T02:24:59.186Z,13.01
2019-01-10T02:25:59.363Z,13.01
2019-01-10T02:26:59.170Z,12.95
2019-01-10T02:27:59.154Z,12.94
2019-01-10T02:28:59.143Z,12.95
2019-01-10T02:29:59.131Z,12.95
2019-01-10T02:30:59.125Z,12.95
2019-01-10T02:31:59.318Z,12.93
2019-01-10T02:32:59.100Z,12.93
2019-01-10T02:33:59.089Z,12.93
2019-01-10T02:34:59.079Z,12.87
2019-01-10T02:35:59.068Z,12.88
2019-01-10T02:36:59.060Z,12.84
2019-01-10T02:37:59.152Z,12.87
2019-01-10T02:38:59.036Z,12.76
2019-01-10T02:39:59.023Z,12.76
2019-01-10T02:40:59.013Z,12.72
2019-01-10T02:41:59.012Z,12.70
2019-01-10T02:42:58.993Z,12.73
2019-01-10T02:43:59.095Z,12.73
2019-01-10T02:44:59.034Z,12.68
2019-01-10T02:45:58.961Z,12.63
2019-01-10T02:46:58.948Z,12.66
2019-01-10T02:47:58.937Z,12.70
2019-01-10T02:48:58.923Z,12.72
2019-01-10T02:49:59.124Z,12.69
2019-01-10T02:50:58.907Z,12.68
2019-01-10T02:51:58.903Z,12.65
2019-01-10T02:52:58.880Z,12.66
2019-01-10T02:53:58.876Z,12.68
2019-01-10T02:54:58.864Z,12.65
2019-01-10T02:55:58.944Z,12.62
2019-01-10T02:56:58.844Z,12.62
2019-01-10T02:57:58.827Z,12.61
2019-01-10T02:58:58.820Z,12.57
2019-01-10T02:59:58.811Z,12.47
2019-01-10T03:00:58.798Z,12.50
2019-01-10T03:01:58.943Z,12.53
2019-01-10T03:02:58.775Z,12.50
2019-01-10T03:03:58.765Z,12.45
2019-01-10T03:04:58.756Z,12.53
2019-01-10T03:05:58.741Z,12.47
2019-01-10T03:06:58.729Z,12.47
2019-01-10T03:07:58.933Z,12.50
2019-01-10T03:08:58.714Z,12.50
2019-01-10T03:09:58.700Z,12.51
2019-01-10T03:10:58.689Z,12.51
2019-01-10T03:11:58.681Z,12.50
2019-01-10T03:12:58.670Z,12.44
2019-01-10T03:13:58.751Z,12.45
2019-01-10T03:14:58.644Z,12.53
2019-01-10T03:15:58.633Z,12.45
2019-01-10T03:16:58.623Z,12.48
2019-01-10T03:17:58.615Z,12.47
2019-01-10T03:18:58.602Z,12.39
2019-01-10T03:19:58.765Z,12.47
2019-01-10T03:20:58.581Z,12.43
2019-01-10T03:21:58.580Z,12.47
2019-01-10T03:22:58.573Z,12.47
2019-01-10T03:23:58.549Z,12.37
2019-01-10T03:24:58.538Z,12.39
2019-01-10T03:25:58.929Z,12.39
2019-01-10T03:26:58.513Z,12.40
2019-01-10T03:27:58.511Z,12.43
2019-01-10T03:28:58.497Z,12.36
2019-01-10T03:29:58.485Z,12.35
2019-01-10T03:30:58.473Z,12.35
2019-01-10T03:31:58.556Z,12.39
2019-01-10T03:32:58.450Z,12.35
2019-01-10T03:33:58.439Z,12.28
2019-01-10T03:34:58.432Z,12.28
2019-01-10T03:35:58.418Z,12.26
2019-01-10T03:36:58.407Z,12.35
2019-01-10T03:37:58.506Z,12.26
2019-01-10T03:38:58.387Z,12.23
2019-01-10T03:39:58.374Z,12.29
2019-01-10T03:40:58.365Z,12.26
2019-01-10T03:41:58.352Z,12.21
2019-01-10T03:42:58.346Z,12.23
2019-01-10T03:43:58.512Z,12.28
2019-01-10T03:44:58.320Z,12.26
2019-01-10T03:45:58.314Z,12.28
2019-01-10T03:46:58.302Z,12.18
2019-01-10T03:47:58.291Z,12.25
2019-01-10T03:48:58.282Z,12.23
2019-01-10T03:49:58.404Z,12.14
2019-01-10T03:50:58.257Z,12.25
2019-01-10T03:51:58.246Z,12.21
2019-01-10T03:52:58.235Z,12.26
2019-01-10T03:53:58.229Z,12.14
2019-01-10T03:54:58.216Z,12.20
2019-01-10T03:55:58.309Z,12.15
2019-01-10T03:56:58.196Z,12.12
2019-01-10T03:57:58.184Z,12.18
2019-01-10T03:58:58.170Z,12.18
2019-01-10T03:59:58.170Z,12.12
2019-01-10T04:00:58.150Z,12.18
2019-01-10T04:01:58.320Z,12.25
2019-01-10T04:02:58.188Z,12.11
2019-01-10T04:03:58.120Z,12.29
2019-01-10T04:04:58.108Z,12.14
2019-01-10T04:05:58.098Z,12.20
2019-01-10T04:06:58.088Z,12.18
2019-01-10T04:07:58.169Z,12.17
2019-01-10T04:08:58.074Z,12.15
2019-01-10T04:09:58.057Z,12.18
2019-01-10T04:10:58.044Z,12.15
2019-01-10T04:11:58.034Z,12.15
2019-01-10T04:12:58.026Z,12.11
2019-01-10T04:13:58.217Z,12.08
2019-01-10T04:14:58.014Z,12.11
2019-01-10T04:15:57.991Z,12.14
2019-01-10T04:16:57.984Z,12.11
2019-01-10T04:17:57.969Z,12.11
2019-01-10T04:18:57.958Z,12.10
2019-01-10T04:19:58.128Z,12.08
2019-01-10T04:20:57.933Z,12.02
2019-01-10T04:21:57.929Z,12.17
2019-01-10T04:22:58.044Z,11.96
2019-01-10T04:23:57.901Z,12.11
2019-01-10T04:24:57.893Z,12.10
2019-01-10T04:25:57.976Z,12.08
2019-01-10T04:26:57.873Z,12.02
2019-01-10T04:27:57.860Z,12.07
2019-01-10T04:28:57.850Z,12.07
2019-01-10T04:29:57.839Z,12.00
2019-01-10T04:30:57.828Z,12.03
2019-01-10T04:31:58.074Z,12.03
2019-01-10T04:32:57.821Z,12.02
2019-01-10T04:33:57.794Z,12.03
2019-01-10T04:34:57.782Z,12.02
2019-01-10T04:35:57.774Z,12.00
2019-01-10T04:36:57.764Z,11.99
2019-01-10T04:37:58.020Z,11.97
2019-01-10T04:38:57.747Z,11.99
2019-01-10T04:39:57.729Z,12.02
2019-01-10T04:40:57.720Z,11.99
2019-01-10T04:41:57.708Z,12.02
2019-01-10T04:42:57.699Z,12.02
2019-01-10T04:44:06.705Z,12.02
2019-01-10T04:44:58.676Z,11.91
2019-01-10T04:45:57.667Z,11.91
2019-01-10T04:46:57.664Z,11.89
2019-01-10T04:47:57.646Z,11.89
2019-01-10T04:48:57.635Z,11.85
2019-01-10T04:49:57.933Z,11.95
2019-01-10T04:50:57.613Z,11.95
2019-01-10T04:51:57.601Z,11.96
2019-01-10T04:52:57.595Z,11.89
2019-01-10T04:53:57.579Z,11.93
2019-01-10T04:54:57.640Z,11.86
2019-01-10T04:55:57.660Z,11.91
2019-01-10T04:56:57.549Z,11.95
2019-01-10T04:57:57.538Z,11.91
2019-01-10T04:58:57.527Z,11.88
2019-01-10T04:59:57.523Z,11.88
2019-01-10T05:00:57.506Z,11.89
2019-01-10T05:01:57.707Z,11.91
2019-01-10T05:02:57.484Z,11.91
2019-01-10T05:03:57.471Z,11.93
2019-01-10T05:04:57.459Z,11.86
2019-01-10T05:05:57.452Z,11.96
2019-01-10T05:06:57.441Z,11.93
2019-01-10T05:07:57.561Z,11.91
2019-01-10T05:08:57.421Z,11.95
2019-01-10T05:09:57.408Z,11.93
2019-01-10T05:10:57.397Z,11.95
2019-01-10T05:11:57.389Z,11.89
2019-01-10T05:12:57.380Z,11.95
2019-01-10T05:13:57.682Z,11.97
2019-01-10T05:14:57.354Z,11.96
2019-01-10T05:15:57.340Z,11.86
2019-01-10T05:16:57.329Z,11.88
2019-01-10T05:17:57.320Z,11.93
2019-01-10T05:18:57.315Z,11.91
2019-01-10T05:19:57.431Z,11.93
2019-01-10T05:20:57.291Z,11.85
2019-01-10T05:21:57.275Z,11.95
2019-01-10T05:22:57.267Z,11.86
2019-01-10T05:23:57.258Z,11.93
2019-01-10T05:24:57.250Z,11.91
2019-01-10T05:25:57.331Z,12.02
2019-01-10T05:26:57.226Z,12.05
2019-01-10T05:27:57.215Z,12.00
2019-01-10T05:28:57.205Z,11.99
2019-01-10T05:29:57.194Z,12.03
2019-01-10T05:30:57.183Z,12.00
2019-01-10T05:31:57.382Z,12.03
2019-01-10T05:32:57.166Z,12.05
2019-01-10T05:33:57.151Z,11.93
2019-01-10T05:34:57.141Z,12.02
2019-01-10T05:35:57.129Z,12.07
2019-01-10T05:36:57.121Z,12.02
2019-01-10T05:37:57.236Z,12.00
2019-01-10T05:38:57.097Z,12.12
2019-01-10T05:39:57.090Z,12.07
2019-01-10T05:40:57.076Z,12.07
2019-01-10T05:41:57.062Z,12.11
2019-01-10T05:42:57.054Z,12.17
2019-01-10T05:43:57.137Z,12.11
2019-01-10T05:44:57.029Z,12.25
2019-01-10T05:45:57.022Z,12.15
2019-01-10T05:46:57.007Z,12.21
2019-01-10T05:47:56.997Z,12.20
2019-01-10T05:48:56.988Z,12.25
2019-01-10T05:49:57.166Z,12.30
2019-01-10T05:50:56.964Z,12.35
2019-01-10T05:51:56.953Z,12.36
2019-01-10T05:52:57.078Z,12.33
2019-01-10T05:53:56.938Z,12.37
2019-01-10T05:54:56.932Z,12.43
2019-01-10T05:55:57.008Z,12.33
2019-01-10T05:56:56.901Z,12.37
2019-01-10T05:57:56.900Z,12.44
2019-01-10T05:58:56.889Z,12.47
2019-01-10T05:59:56.871Z,12.55
2019-01-10T06:00:56.856Z,12.57
2019-01-10T06:01:57.130Z,12.47
2019-01-10T06:02:56.840Z,12.44
2019-01-10T06:03:56.825Z,12.65
2019-01-10T06:04:56.821Z,12.50
2019-01-10T06:05:56.808Z,12.63
2019-01-10T06:06:56.806Z,12.65
2019-01-10T06:07:56.879Z,12.54
2019-01-10T06:08:56.770Z,12.63
2019-01-10T06:09:56.773Z,12.68
2019-01-10T06:10:56.755Z,12.65
2019-01-10T06:11:56.787Z,12.72
2019-01-10T06:12:56.727Z,12.75
2019-01-10T06:13:56.938Z,12.73
2019-01-10T06:14:57.323Z,12.78
2019-01-10T06:15:56.708Z,12.80
2019-01-10T06:16:56.685Z,12.80
2019-01-10T06:17:56.679Z,12.87
2019-01-10T06:18:56.667Z,12.84
2019-01-10T06:19:56.766Z,12.84
2019-01-10T06:20:56.656Z,12.94
2019-01-10T06:21:57.367Z,12.93
2019-01-10T06:22:56.651Z,12.99
2019-01-10T06:23:56.693Z,12.99
2019-01-10T06:24:56.639Z,13.05
2019-01-10T06:25:56.790Z,13.12
2019-01-10T06:26:56.613Z,13.03
2019-01-10T06:27:57.834Z,13.12
2019-01-10T06:28:56.569Z,13.08
2019-01-10T06:29:56.553Z,13.02
2019-01-10T06:30:56.574Z,13.13
2019-01-10T06:31:56.935Z,13.08
2019-01-10T06:32:56.582Z,13.19
2019-01-10T06:33:56.538Z,13.13
2019-01-10T06:34:56.503Z,13.26
2019-01-10T06:35:56.492Z,13.26
2019-01-10T06:36:56.508Z,13.33
2019-01-10T06:37:56.611Z,13.42
2019-01-10T06:38:56.492Z,13.39
2019-01-10T06:39:56.452Z,13.39
2019-01-10T06:40:56.446Z,13.46
2019-01-10T06:41:56.433Z,13.46
2019-01-10T06:43:05.539Z,13.52
2019-01-10T06:44:06.358Z,13.50
2019-01-10T06:45:06.362Z,13.57
2019-01-10T06:46:06.351Z,13.54
2019-01-10T06:46:56.378Z,13.55
2019-01-10T06:47:56.355Z,13.57
2019-01-10T06:48:56.532Z,13.46
2019-01-10T06:49:56.423Z,13.55
2019-01-10T06:50:56.323Z,13.61
2019-01-10T06:51:56.316Z,13.67
2019-01-10T06:52:56.301Z,13.68
2019-01-10T06:53:56.287Z,13.73
2019-01-10T06:54:56.893Z,13.75
2019-01-10T06:55:56.268Z,13.80
2019-01-10T06:56:56.265Z,13.83
2019-01-10T06:57:56.249Z,13.86
2019-01-10T06:58:56.236Z,13.93
2019-01-10T06:59:56.221Z,13.87
2019-01-10T07:00:56.413Z,13.87
2019-01-10T07:01:56.204Z,13.98
2019-01-10T07:02:56.189Z,14.01
2019-01-10T07:03:56.179Z,14.01
2019-01-10T07:04:56.171Z,14.03
2019-01-10T07:05:56.159Z,14.07
2019-01-10T07:06:56.470Z,14.16
2019-01-10T07:07:57.075Z,14.12
2019-01-10T07:08:56.123Z,14.08
2019-01-10T07:09:56.117Z,14.22
2019-01-10T07:10:56.103Z,14.28
2019-01-10T07:11:56.095Z,14.38
2019-01-10T07:12:56.181Z,14.40
2019-01-10T07:13:56.073Z,14.41
2019-01-10T07:14:56.062Z,14.45
2019-01-10T07:15:56.051Z,14.61
2019-01-10T07:16:56.041Z,14.73
2019-01-10T07:17:56.032Z,14.74
2019-01-10T07:18:57.335Z,14.86
2019-01-10T07:19:56.012Z,14.90
2019-01-10T07:20:56.001Z,14.94
2019-01-10T07:21:55.990Z,15.04
2019-01-10T07:22:55.976Z,15.04
2019-01-10T07:23:55.965Z,15.23
2019-01-10T07:24:56.128Z,15.22
2019-01-10T07:25:55.951Z,15.43
2019-01-10T07:26:55.936Z,15.51
2019-01-10T07:27:56.694Z,15.57
2019-01-10T07:28:55.911Z,15.65
2019-01-10T07:29:55.911Z,15.78
2019-01-10T07:30:56.088Z,15.73
2019-01-10T07:31:56.442Z,15.96
2019-01-10T07:32:55.888Z,15.98
2019-01-10T07:33:55.855Z,15.98
2019-01-10T07:34:55.847Z,16.02
2019-01-10T07:35:55.839Z,16.09
2019-01-10T07:36:56.164Z,16.13
2019-01-10T07:37:55.816Z,16.22
2019-01-10T07:38:58.092Z,16.31
2019-01-10T07:39:55.791Z,16.28
2019-01-10T07:40:55.781Z,16.36
2019-01-10T07:41:55.766Z,16.34
2019-01-10T07:42:55.860Z,16.34
2019-01-10T07:43:55.753Z,16.39
2019-01-10T07:45:02.606Z,16.34
2019-01-10T07:45:56.722Z,16.50
2019-01-10T07:46:55.712Z,16.50
2019-01-10T07:47:55.704Z,16.54
2019-01-10T07:48:56.447Z,16.59
2019-01-10T07:49:55.684Z,16.62
2019-01-10T07:50:55.672Z,16.62
2019-01-10T07:51:55.657Z,16.66
2019-01-10T07:52:55.646Z,16.68
2019-01-10T07:53:55.642Z,16.74
2019-01-10T07:54:56.707Z,16.77
2019-01-10T07:55:55.620Z,16.79
2019-01-10T07:56:55.605Z,16.79
2019-01-10T07:57:55.597Z,16.84
2019-01-10T07:58:55.587Z,16.91
2019-01-10T07:59:55.585Z,17.02
2019-01-10T08:00:56.498Z,16.95
2019-01-10T08:01:55.567Z,17.07
2019-01-10T08:02:55.555Z,17.01
2019-01-10T08:03:55.538Z,17.13
2019-01-10T08:04:55.523Z,17.23
2019-01-10T08:05:55.554Z,17.31
2019-01-10T08:06:55.598Z,17.37
2019-01-10T08:07:55.489Z,17.42
2019-01-10T08:08:55.477Z,17.49
2019-01-10T08:09:55.466Z,17.54
2019-01-10T08:10:55.458Z,17.56
2019-01-10T08:12:00.358Z,17.75
2019-01-10T08:12:56.656Z,17.72
2019-01-10T08:13:55.432Z,17.90
2019-01-10T08:14:55.415Z,17.97
2019-01-10T08:15:55.406Z,18.06
2019-01-10T08:16:55.405Z,18.08
2019-01-10T08:17:55.393Z,18.18
2019-01-10T08:18:55.489Z,18.24
2019-01-10T08:19:55.368Z,18.34
2019-01-10T08:20:55.355Z,18.42
2019-01-10T08:21:55.947Z,18.52
2019-01-10T08:22:55.347Z,18.63
2019-01-10T08:23:55.321Z,18.68
2019-01-10T08:24:55.609Z,18.86
2019-01-10T08:25:55.312Z,18.79
2019-01-10T08:26:55.298Z,18.86
2019-01-10T08:27:55.280Z,18.96
2019-01-10T08:28:55.270Z,19.07
2019-01-10T08:29:55.256Z,19.16
2019-01-10T08:30:55.345Z,19.26
2019-01-10T08:31:55.314Z,19.27
2019-01-10T08:32:55.239Z,19.44
2019-01-10T08:33:55.215Z,19.52
2019-01-10T08:34:55.217Z,19.63
2019-01-10T08:35:55.222Z,19.77
2019-01-10T08:36:55.390Z,19.89
2019-01-10T08:37:55.175Z,19.89
2019-01-10T08:38:55.216Z,19.97
2019-01-10T08:39:55.160Z,20.04
2019-01-10T08:40:55.139Z,20.21
2019-01-10T08:41:55.132Z,20.26
2019-01-10T08:42:55.942Z,20.29
2019-01-10T08:43:55.108Z,20.39
2019-01-10T08:44:55.104Z,20.53
2019-01-10T08:45:55.084Z,20.56
2019-01-10T08:46:55.085Z,20.63
2019-01-10T08:47:55.074Z,20.78
2019-01-10T08:48:55.149Z,20.90
2019-01-10T08:49:55.073Z,20.95
2019-01-10T08:50:55.038Z,21.00
2019-01-10T08:51:55.020Z,20.95
2019-01-10T08:52:55.028Z,21.00
2019-01-10T08:53:55.004Z,20.98
2019-01-10T08:54:55.321Z,21.07
2019-01-10T08:55:55.008Z,21.17
2019-01-10T08:56:54.972Z,21.15
2019-01-10T08:57:54.958Z,21.23
2019-01-10T08:58:54.966Z,21.25
2019-01-10T08:59:54.933Z,21.32
2019-01-10T09:00:55.031Z,21.38
2019-01-10T09:01:54.913Z,21.41
2019-01-10T09:02:54.912Z,21.43
2019-01-10T09:03:54.897Z,21.44
2019-01-10T09:04:54.897Z,21.53
2019-01-10T09:05:54.874Z,21.63
2019-01-10T09:06:54.981Z,21.63
2019-01-10T09:07:54.893Z,21.60
2019-01-10T09:08:54.845Z,21.59
2019-01-10T09:09:54.839Z,21.54
2019-01-10T09:10:54.824Z,21.59
2019-01-10T09:11:54.811Z,21.62
2019-01-10T09:12:55.085Z,21.72
2019-01-10T09:13:54.788Z,21.74
2019-01-10T09:14:54.801Z,21.80
2019-01-10T09:15:54.776Z,21.85
2019-01-10T09:16:55.454Z,21.94
2019-01-10T09:17:54.742Z,21.92
2019-01-10T09:18:55.134Z,21.96
2019-01-10T09:19:54.726Z,22.03
2019-01-10T09:21:03.960Z,21.96
2019-01-10T09:21:55.712Z,22.03
2019-01-10T09:22:54.688Z,22.10
2019-01-10T09:23:54.676Z,22.08
2019-01-10T09:24:54.895Z,22.03
2019-01-10T09:25:54.684Z,22.07
2019-01-10T09:26:54.653Z,22.01
2019-01-10T09:27:54.641Z,22.03
2019-01-10T09:28:54.624Z,21.99
2019-01-10T09:29:54.611Z,21.94
2019-01-10T09:30:54.823Z,22.01
2019-01-10T09:31:54.592Z,21.92
2019-01-10T09:32:54.583Z,21.96
2019-01-10T09:33:54.576Z,21.94
2019-01-10T09:34:54.565Z,21.89
2019-01-10T09:35:54.545Z,21.94
2019-01-10T09:36:54.647Z,21.94
2019-01-10T09:37:54.525Z,21.84
2019-01-10T09:38:54.523Z,21.81
2019-01-10T09:39:54.510Z,21.81
2019-01-10T09:40:54.493Z,21.83
2019-01-10T09:41:54.492Z,21.81
2019-01-10T09:42:54.607Z,21.83
2019-01-10T09:43:54.462Z,21.81
2019-01-10T09:44:55.713Z,21.92
2019-01-10T09:45:54.483Z,21.85
2019-01-10T09:46:54.474Z,21.85
2019-01-10T09:47:54.421Z,21.94
2019-01-10T09:48:54.620Z,22.04
2019-01-10T09:49:54.565Z,22.12
2019-01-10T09:50:54.397Z,22.04
2019-01-10T09:51:54.382Z,22.07
2019-01-10T09:52:54.364Z,22.15
2019-01-10T09:53:54.358Z,22.23
2019-01-10T09:54:54.451Z,22.30
2019-01-10T09:55:54.333Z,22.43
2019-01-10T09:56:54.324Z,22.43
2019-01-10T09:57:54.319Z,22.47
2019-01-10T09:58:54.299Z,22.51
2019-01-10T09:59:54.424Z,22.59
2019-01-10T10:00:54.379Z,22.63
2019-01-10T10:01:54.271Z,22.74
2019-01-10T10:02:54.256Z,22.83
2019-01-10T10:03:54.245Z,22.98
2019-01-10T10:04:54.232Z,23.07
2019-01-10T10:05:54.303Z,23.18
2019-01-10T10:06:54.532Z,23.29
2019-01-10T10:07:54.270Z,23.48
2019-01-10T10:08:54.190Z,23.62
2019-01-10T10:09:54.295Z,23.84
2019-01-10T10:10:54.166Z,23.95
2019-01-10T10:11:54.160Z,24.09
2019-01-10T10:12:54.245Z,24.21
2019-01-10T10:13:54.132Z,24.41
2019-01-10T10:14:54.150Z,24.48
2019-01-10T10:15:54.119Z,24.65
2019-01-10T10:16:54.105Z,24.86
2019-01-10T10:17:54.105Z,24.97
2019-01-10T10:18:54.194Z,25.11
2019-01-10T10:19:54.072Z,25.14
2019-01-10T10:20:54.060Z,25.21
2019-01-10T10:21:54.076Z,25.34
2019-01-10T10:22:54.037Z,25.41
2019-01-10T10:23:54.027Z,25.52
2019-01-10T10:24:54.209Z,25.63
2019-01-10T10:25:54.004Z,25.68
2019-01-10T10:26:53.996Z,25.86
2019-01-10T10:27:53.996Z,25.92
2019-01-10T10:28:53.972Z,26.01
2019-01-10T10:29:53.963Z,26.18
2019-01-10T10:30:55.228Z,26.29
2019-01-10T10:31:53.944Z,26.53
2019-01-10T10:32:53.936Z,26.59
2019-01-10T10:33:53.919Z,26.78
2019-01-10T10:34:53.909Z,26.92
2019-01-10T10:35:53.899Z,27.00
2019-01-10T10:36:54.050Z,27.18
2019-01-10T10:37:53.876Z,27.26
2019-01-10T10:38:53.864Z,27.50
2019-01-10T10:39:53.859Z,27.50
2019-01-10T10:40:53.843Z,27.63
2019-01-10T10:41:53.835Z,27.82
2019-01-10T10:42:54.007Z,27.83
2019-01-10T10:43:53.814Z,28.00
2019-01-10T10:44:53.804Z,28.08
2019-01-10T10:46:01.430Z,28.33
2019-01-10T10:46:54.780Z,28.35
2019-01-10T10:47:53.768Z,28.47
2019-01-10T10:48:53.879Z,28.47
2019-01-10T10:49:53.749Z,28.64
2019-01-10T10:50:53.734Z,28.67
2019-01-10T10:51:53.726Z,28.84
2019-01-10T10:52:53.715Z,29.09
2019-01-10T10:53:53.701Z,29.15
2019-01-10T10:54:53.872Z,29.32
2019-01-10T10:55:53.683Z,29.50
2019-01-10T10:56:53.672Z,29.77
2019-01-10T10:57:53.662Z,29.92
2019-01-10T10:58:53.654Z,30.13
2019-01-10T10:59:53.642Z,30.55
2019-01-10T11:00:53.829Z,30.88
2019-01-10T11:01:53.618Z,31.13
2019-01-10T11:02:53.608Z,31.50
2019-01-10T11:03:53.597Z,31.69
2019-01-10T11:04:53.586Z,32.07
2019-01-10T11:05:53.579Z,32.45
2019-01-10T11:06:53.671Z,32.79
2019-01-10T11:07:53.575Z,33.26
2019-01-10T11:08:53.544Z,33.58
2019-01-10T11:09:53.530Z,33.97
2019-01-10T11:10:53.519Z,34.40
2019-01-10T11:11:53.511Z,34.79
2019-01-10T11:12:53.689Z,35.13
2019-01-10T11:13:53.489Z,35.32
2019-01-10T11:14:53.477Z,35.69
2019-01-10T11:15:53.469Z,35.81
2019-01-10T11:16:53.462Z,36.06
2019-01-10T11:17:53.447Z,36.26
2019-01-10T11:18:53.556Z,36.55
2019-01-10T11:19:53.427Z,36.72
2019-01-10T11:20:53.417Z,36.97
2019-01-10T11:21:53.408Z,37.16
2019-01-10T11:22:53.397Z,37.31
2019-01-10T11:23:53.422Z,37.48
2019-01-10T11:24:53.482Z,37.50
2019-01-10T11:25:53.365Z,37.56
2019-01-10T11:26:53.506Z,37.47
2019-01-10T11:27:53.347Z,37.64
2019-01-10T11:28:53.334Z,37.68
2019-01-10T11:29:53.324Z,37.92
2019-01-10T11:30:53.424Z,38.04
2019-01-10T11:31:53.302Z,38.19
2019-01-10T11:32:53.846Z,38.22
2019-01-10T11:33:53.297Z,38.17
2019-01-10T11:34:53.272Z,38.20
2019-01-10T11:35:53.262Z,38.09
2019-01-10T11:36:53.576Z,38.19
2019-01-10T11:37:53.257Z,37.97
2019-01-10T11:38:53.257Z,37.78
2019-01-10T11:39:53.221Z,37.57
2019-01-10T11:40:53.212Z,37.38
2019-01-10T11:41:53.202Z,37.23
2019-01-10T11:42:53.295Z,37.10
2019-01-10T11:43:53.179Z,37.04
2019-01-10T11:44:53.168Z,37.04
2019-01-10T11:45:53.157Z,36.97
2019-01-10T11:46:53.147Z,37.01
2019-01-10T11:47:53.135Z,36.94
2019-01-10T11:48:53.438Z,36.89
2019-01-10T11:49:53.115Z,36.80
2019-01-10T11:50:53.104Z,36.66
2019-01-10T11:51:53.092Z,36.57
2019-01-10T11:52:53.081Z,36.45
2019-01-10T11:53:53.074Z,36.55
2019-01-10T11:54:53.168Z,36.59
2019-01-10T11:55:53.054Z,36.59
2019-01-10T11:56:53.042Z,36.60
2019-01-10T11:57:53.033Z,36.53
2019-01-10T11:58:53.023Z,36.31
2019-01-10T11:59:53.013Z,36.18
2019-01-10T12:00:53.319Z,36.13
2019-01-10T12:01:52.991Z,36.05
2019-01-10T12:02:52.983Z,35.90
2019-01-10T12:03:52.977Z,35.87
2019-01-10T12:04:52.961Z,35.91
2019-01-10T12:05:53.365Z,35.81
2019-01-10T12:06:53.088Z,35.76
2019-01-10T12:07:52.930Z,35.64
2019-01-10T12:08:52.927Z,35.72
2019-01-10T12:09:52.907Z,35.79
2019-01-10T12:10:52.896Z,35.75
2019-01-10T12:11:52.887Z,35.76
2019-01-10T12:12:52.996Z,35.81
2019-01-10T12:13:52.867Z,35.96
2019-01-10T12:14:53.856Z,35.91
2019-01-10T12:15:52.848Z,35.97
2019-01-10T12:16:52.841Z,35.86
2019-01-10T12:17:52.894Z,35.74
2019-01-10T12:18:59.169Z,35.52
2019-01-10T12:19:53.804Z,35.41
2019-01-10T12:20:52.815Z,35.31
2019-01-10T12:21:52.785Z,35.22
2019-01-10T12:22:52.794Z,35.20
2019-01-10T12:23:52.772Z,35.22
2019-01-10T12:24:52.926Z,35.32
2019-01-10T12:25:52.747Z,35.37
2019-01-10T12:26:52.731Z,35.49
2019-01-10T12:27:52.723Z,35.47
2019-01-10T12:28:52.716Z,35.56
2019-01-10T12:29:52.700Z,35.53
2019-01-10T12:30:52.803Z,35.54
2019-01-10T12:31:52.681Z,35.61
2019-01-10T12:32:52.774Z,35.68
2019-01-10T12:33:52.663Z,35.75
2019-01-10T12:34:52.653Z,35.63
2019-01-10T12:35:52.641Z,35.64
2019-01-10T12:37:00.224Z,35.64
2019-01-10T12:37:53.619Z,35.69
2019-01-10T12:38:52.614Z,35.57
2019-01-10T12:39:52.598Z,35.50
2019-01-10T12:40:52.591Z,35.44
2019-01-10T12:41:52.581Z,35.49
2019-01-10T12:42:52.854Z,35.42
2019-01-10T12:43:52.559Z,35.37
2019-01-10T12:44:52.548Z,35.41
2019-01-10T12:45:52.538Z,35.49
2019-01-10T12:46:52.530Z,35.57
2019-01-10T12:47:52.518Z,35.68
2019-01-10T12:48:52.609Z,35.68
2019-01-10T12:49:52.493Z,35.75
2019-01-10T12:50:52.484Z,35.76
2019-01-10T12:51:52.475Z,35.88